Time;durP1;ratioP1;P1;durP2;ratioP2;P2;SDS_P1;SDS_P2;PMS_P1;PMS_P2;Temp;Humidity;BMP_temperature;BMP_pressure;BME280_temperature;BME280_humidity;BME280_pressure;Samples;Min_cycle;Max_cycle;Signal;HPM_P1;HPM_P2
2023/05/06 00:02:31;;;;;;;13.00;12.10;;;15.90;99.90;;;;;;10461244;28;20218;-81
2023/05/06 00:07:34;;;;;;;13.13;12.33;;;15.80;99.90;;;;;;10463166;28;20190;-82
2023/05/06 00:12:36;;;;;;;11.43;10.83;;;15.90;99.90;;;;;;10460033;28;20309;-81
2023/05/06 00:17:38;;;;;;;11.93;11.03;;;15.80;99.90;;;;;;10459766;28;20431;-82
2023/05/06 00:22:42;;;;;;;9.67;9.10;;;15.80;99.90;;;;;;10460148;28;20276;-82
2023/05/06 00:27:44;;;;;;;9.90;9.40;;;15.80;99.90;;;;;;10441439;28;20204;-81
2023/05/06 00:32:46;;;;;;;9.73;9.23;;;15.70;99.90;;;;;;10458326;28;20257;-83
2023/05/06 00:37:57;;;;;;;9.27;8.77;;;15.70;99.90;;;;;;10441504;28;20198;-80
2023/05/06 00:42:59;;;;;;;9.73;9.13;;;15.70;99.90;;;;;;10457923;28;20218;-82
2023/05/06 00:48:02;;;;;;;9.57;9.07;;;15.60;99.90;;;;;;10458384;28;20204;-82
2023/05/06 00:53:10;;;;;;;8.73;8.33;;;15.50;99.90;;;;;;10456646;28;20228;-81
2023/05/06 00:58:13;;;;;;;8.50;8.10;;;15.50;99.90;;;;;;10443784;28;20277;-82
2023/05/06 01:03:16;;;;;;;8.50;8.10;;;15.50;99.90;;;;;;10451652;28;20740;-82
2023/05/06 01:08:30;;;;;;;9.07;8.57;;;15.40;99.90;;;;;;10456992;28;20198;-83
2023/05/06 01:13:40;;;;;;;8.90;8.20;;;15.40;99.90;;;;;;10466668;28;20308;-81
2023/05/06 01:18:44;;;;;;;9.03;8.43;;;15.30;99.90;;;;;;10442147;28;20698;-83
2023/05/06 01:23:56;;;;;;;7.97;7.57;;;15.30;99.90;;;;;;10442316;28;20289;-83
2023/05/06 01:29:00;;;;;;;8.07;7.57;;;15.30;99.90;;;;;;10461721;28;20220;-83
2023/05/06 01:34:14;;;;;;;7.30;7.00;;;15.30;99.90;;;;;;10450619;28;20297;-83
2023/05/06 01:39:24;;;;;;;9.43;8.43;;;15.30;99.90;;;;;;10458887;28;20217;-82
2023/05/06 01:44:30;;;;;;;8.43;7.93;;;15.20;99.90;;;;;;10462846;28;20239;-82
2023/05/06 01:49:32;;;;;;;8.07;7.53;;;15.20;99.90;;;;;;10462142;28;20218;-82
2023/05/06 01:54:36;;;;;;;8.10;7.50;;;15.20;99.90;;;;;;10462146;28;20251;-82
2023/05/06 01:59:38;;;;;;;7.53;7.03;;;15.20;99.90;;;;;;10444469;28;20578;-82
2023/05/06 02:04:40;;;;;;;7.47;6.97;;;15.30;99.90;;;;;;10444959;28;20331;-81
2023/05/06 02:09:43;;;;;;;7.00;6.43;;;15.30;99.90;;;;;;10443791;28;20238;-82
2023/05/06 02:14:46;;;;;;;6.33;5.80;;;15.30;99.90;;;;;;10462610;28;20198;-82
2023/05/06 02:19:48;;;;;;;5.93;5.53;;;15.30;99.90;;;;;;10462863;28;20225;-83
2023/05/06 02:24:51;;;;;;;6.00;5.60;;;15.20;99.90;;;;;;10446824;28;20210;-82
2023/05/06 02:29:54;;;;;;;7.50;5.20;;;15.20;99.90;;;;;;10462268;28;20252;-82
2023/05/06 02:34:56;;;;;;;5.50;5.23;;;15.20;99.90;;;;;;10446161;28;20194;-82
2023/05/06 02:39:59;;;;;;;4.97;4.77;;;15.20;99.90;;;;;;10446275;28;20218;-82
2023/05/06 02:45:01;;;;;;;5.53;5.10;;;15.20;99.90;;;;;;10462412;28;20218;-81
2023/05/06 02:50:04;;;;;;;7.30;5.30;;;15.20;99.90;;;;;;10461738;28;20296;-82
2023/05/06 02:55:09;;;;;;;5.13;4.80;;;15.20;99.90;;;;;;10467831;28;20194;-81
2023/05/06 03:00:12;;;;;;;5.80;5.50;;;15.20;99.90;;;;;;10459976;28;20255;-81
2023/05/06 03:05:14;;;;;;;6.10;5.70;;;15.10;99.90;;;;;;10443195;28;20228;-81
2023/05/06 03:10:18;;;;;;;5.80;5.43;;;15.20;99.90;;;;;;10444499;28;20222;-80
2023/05/06 03:15:21;;;;;;;5.83;5.53;;;15.10;99.90;;;;;;10460232;28;20190;-80
2023/05/06 03:20:23;;;;;;;6.07;5.77;;;15.20;99.90;;;;;;10462709;28;20225;-82
2023/05/06 03:25:31;;;;;;;6.27;5.63;;;15.10;99.90;;;;;;10437754;28;20563;-80
2023/05/06 03:30:33;;;;;;;5.93;5.50;;;15.20;99.90;;;;;;10470874;23;20317;-82
2023/05/06 03:35:39;;;;;;;6.30;5.80;;;15.20;99.90;;;;;;10402841;28;20229;-81
2023/05/06 03:40:42;;;;;;;6.20;5.90;;;15.20;99.90;;;;;;10435394;28;20245;-81
2023/05/06 03:45:46;;;;;;;5.80;5.40;;;15.20;99.90;;;;;;10442435;28;20253;-81
2023/05/06 03:50:49;;;;;;;8.00;5.40;;;15.20;99.90;;;;;;10444068;28;20217;-81
2023/05/06 03:55:53;;;;;;;5.80;5.50;;;15.10;99.90;;;;;;10460871;28;20244;-81
2023/05/06 04:00:59;;;;;;;5.77;5.40;;;15.00;99.90;;;;;;10464194;28;20304;-81
2023/05/06 04:06:02;;;;;;;6.97;6.47;;;15.00;99.90;;;;;;10462214;28;20217;-81
2023/05/06 04:11:07;;;;;;;6.23;5.73;;;15.00;99.90;;;;;;10446269;28;20666;-81
2023/05/06 04:16:11;;;;;;;5.83;5.33;;;14.90;99.90;;;;;;10461544;28;20197;-81
2023/05/06 04:21:17;;;;;;;6.10;5.60;;;14.90;99.90;;;;;;10447116;28;20217;-82
2023/05/06 04:26:25;;;;;;;6.20;5.70;;;14.80;99.90;;;;;;10460740;28;20245;-82
2023/05/06 04:31:28;;;;;;;6.53;6.00;;;14.70;99.90;;;;;;10446067;28;20666;-82
2023/05/06 04:36:31;;;;;;;5.00;4.70;;;14.70;99.90;;;;;;10460978;28;20197;-81
2023/05/06 04:41:55;;;;;;;5.80;5.30;;;14.70;99.90;;;;;;10461792;28;20244;-81
2023/05/06 04:47:05;;;;;;;5.20;4.77;;;14.60;99.90;;;;;;10450353;28;20198;-81
2023/05/06 04:52:08;;;;;;;5.40;4.93;;;14.50;99.90;;;;;;10455548;28;20241;-81
2023/05/06 04:57:11;;;;;;;5.40;4.97;;;14.60;99.90;;;;;;10465517;28;20719;-81
2023/05/06 05:02:16;;;;;;;5.70;5.30;;;14.60;99.90;;;;;;10447857;28;20236;-81
2023/05/06 05:07:19;;;;;;;5.80;5.30;;;14.50;99.90;;;;;;10465705;28;20256;-81
2023/05/06 05:12:23;;;;;;;5.90;5.23;;;14.60;99.90;;;;;;10465380;28;20238;-81
2023/05/06 05:17:27;;;;;;;5.60;5.20;;;14.60;99.90;;;;;;10458096;28;20201;-82
2023/05/06 05:22:31;;;;;;;4.67;4.27;;;14.70;99.90;;;;;;10468415;28;20271;-82
2023/05/06 05:27:35;;;;;;;5.40;4.87;;;14.70;99.90;;;;;;10460534;28;20223;-82
2023/05/06 05:32:37;;;;;;;5.77;5.27;;;14.70;99.90;;;;;;10444223;28;20226;-81
2023/05/06 05:37:39;;;;;;;6.50;4.80;;;14.80;99.90;;;;;;10460392;28;20559;-82
2023/05/06 05:42:43;;;;;;;6.30;5.90;;;14.80;99.90;;;;;;10444035;28;20692;-83
2023/05/06 05:47:55;;;;;;;6.67;6.13;;;14.90;99.90;;;;;;10445242;28;20661;-81
2023/05/06 05:52:58;;;;;;;6.40;5.83;;;15.00;99.90;;;;;;10463275;28;20644;-83
2023/05/06 05:58:03;;;;;;;5.90;5.50;;;15.00;99.90;;;;;;10460569;28;20200;-82
2023/05/06 06:03:07;;;;;;;6.30;5.90;;;15.10;99.90;;;;;;10444838;28;20761;-82
2023/05/06 06:08:09;;;;;;;6.53;6.13;;;15.20;99.90;;;;;;10443639;28;20198;-83
2023/05/06 06:13:13;;;;;;;6.30;5.80;;;15.30;99.90;;;;;;10462471;28;20218;-82
2023/05/06 06:18:15;;;;;;;6.33;5.73;;;15.40;99.90;;;;;;10458140;28;20194;-82
2023/05/06 06:23:17;;;;;;;6.17;5.60;;;15.60;99.90;;;;;;10442243;28;20221;-83
2023/05/06 06:28:21;;;;;;;5.40;5.10;;;15.70;99.90;;;;;;10444573;28;20205;-81
2023/05/06 06:33:23;;;;;;;6.10;5.60;;;16.00;99.90;;;;;;10465460;28;20642;-81
2023/05/06 06:38:26;;;;;;;4.90;4.30;;;16.10;99.90;;;;;;10448971;28;20218;-81
2023/05/06 06:43:29;;;;;;;5.33;4.93;;;16.20;99.90;;;;;;10465049;28;20206;-81
2023/05/06 06:48:45;;;;;;;4.67;4.37;;;16.40;99.90;;;;;;10463274;28;20208;-81
2023/05/06 06:53:47;;;;;;;4.80;4.20;;;16.60;99.90;;;;;;10459285;28;20217;-81
2023/05/06 06:58:51;;;;;;;4.03;3.73;;;16.80;99.90;;;;;;10461168;28;20270;-81
2023/05/06 07:03:53;;;;;;;4.80;3.87;;;16.90;99.90;;;;;;10462997;28;20217;-81
2023/05/06 07:08:55;;;;;;;4.60;3.27;;;17.00;99.90;;;;;;10465103;28;20202;-81
2023/05/06 07:13:59;;;;;;;11.00;3.47;;;17.30;99.90;;;;;;10465178;28;20282;-82
2023/05/06 07:19:01;;;;;;;3.73;2.70;;;17.50;99.90;;;;;;10446509;28;20226;-81
2023/05/06 07:24:03;;;;;;;2.80;2.50;;;17.80;99.90;;;;;;10466666;28;20210;-81
2023/05/06 07:29:07;;;;;;;3.53;2.73;;;18.00;99.90;;;;;;10465484;28;20194;-81
2023/05/06 07:34:09;;;;;;;2.77;2.57;;;18.10;99.90;;;;;;10466290;28;20610;-81
2023/05/06 07:39:12;;;;;;;4.30;2.33;;;18.20;99.90;;;;;;10470917;28;20217;-81
2023/05/06 07:44:16;;;;;;;8.87;2.47;;;18.20;99.90;;;;;;10464444;28;20210;-81
2023/05/06 07:49:18;;;;;;;7.60;1.97;;;18.10;99.90;;;;;;10462061;28;20264;-81
2023/05/06 07:54:20;;;;;;;7.13;2.30;;;18.10;99.90;;;;;;10460307;28;20194;-82
2023/05/06 07:59:23;;;;;;;4.27;2.40;;;18.00;99.90;;;;;;10462934;28;20594;-82
2023/05/06 08:04:25;;;;;;;4.03;2.47;;;18.10;99.90;;;;;;10459844;28;20214;-82
2023/05/06 08:09:27;;;;;;;3.03;2.77;;;18.30;99.90;;;;;;10462433;28;20257;-83
2023/05/06 08:14:31;;;;;;;10.03;3.07;;;18.40;99.90;;;;;;10463370;28;20205;-82
2023/05/06 08:19:33;;;;;;;4.87;2.63;;;18.50;99.90;;;;;;10458469;28;20220;-82
2023/05/06 08:24:35;;;;;;;4.73;2.30;;;18.50;99.90;;;;;;10461218;28;20218;-82
2023/05/06 08:29:38;;;;;;;3.47;2.73;;;18.40;99.90;;;;;;10460665;28;20689;-82
2023/05/06 08:34:40;;;;;;;2.23;2.13;;;18.50;99.90;;;;;;10459528;28;20190;-82
2023/05/06 08:39:44;;;;;;;2.77;2.27;;;18.70;99.90;;;;;;10456296;28;20268;-81
2023/05/06 08:44:48;;;;;;;2.53;2.37;;;18.90;99.90;;;;;;10455580;28;20241;-81
2023/05/06 08:49:50;;;;;;;12.17;11.10;;;19.10;99.90;;;;;;10456193;28;20226;-80
2023/05/06 08:54:59;;;;;;;2.13;2.03;;;19.30;99.90;;;;;;10457892;28;20194;-82
2023/05/06 09:00:04;;;;;;;2.47;2.27;;;19.50;99.90;;;;;;10458439;28;20236;-81
2023/05/06 09:05:07;;;;;;;3.37;2.70;;;19.70;99.90;;;;;;10458028;28;20622;-82
2023/05/06 09:10:13;;;;;;;2.07;1.90;;;19.80;99.90;;;;;;10457852;28;20225;-82
2023/05/06 09:15:16;;;;;;;2.73;2.43;;;19.70;99.90;;;;;;10459254;28;20194;-82
2023/05/06 09:20:19;;;;;;;3.43;2.70;;;19.80;99.90;;;;;;10458992;28;20266;-80
2023/05/06 09:25:21;;;;;;;2.47;2.27;;;19.80;99.90;;;;;;10458393;28;20624;-80
2023/05/06 09:30:25;;;;;;;2.63;2.30;;;19.80;99.90;;;;;;10463196;23;20230;-78
2023/05/06 09:35:28;;;;;;;2.33;2.20;;;19.90;99.90;;;;;;10411758;28;20191;-78
2023/05/06 09:40:30;;;;;;;3.00;2.60;;;20.10;99.90;;;;;;10420798;28;20218;-79
2023/05/06 09:45:34;;;;;;;2.00;1.90;;;20.40;99.90;;;;;;10435391;28;20214;-79
2023/05/06 09:50:36;;;;;;;2.60;2.40;;;20.70;99.90;;;;;;10454191;28;20230;-78
2023/05/06 09:55:41;;;;;;;2.40;2.20;;;20.90;99.90;;;;;;10458645;28;20198;-78
2023/05/06 10:00:45;;;;;;;2.10;2.00;;;21.20;99.90;;;;;;10458756;28;20301;-78
2023/05/06 10:05:48;;;;;;;2.10;2.00;;;21.50;99.90;;;;;;10452434;28;20627;-79
2023/05/06 10:10:51;;;;;;;2.97;2.50;;;21.90;99.90;;;;;;10438476;28;20218;-78
2023/05/06 10:15:55;;;;;;;2.50;2.40;;;22.20;99.90;;;;;;10460492;28;20723;-79
2023/05/06 10:21:00;;;;;;;2.73;2.53;;;22.20;99.80;;;;;;10463783;28;20210;-79
2023/05/06 10:26:06;;;;;;;3.03;2.83;;;21.90;99.90;;;;;;10463158;28;20275;-79
2023/05/06 10:31:12;;;;;;;3.30;3.00;;;21.60;99.90;;;;;;10463830;28;20275;-79
2023/05/06 10:36:19;;;;;;;2.90;2.53;;;21.30;98.80;;;;;;10463934;28;20215;-79
2023/05/06 10:41:21;;;;;;;2.23;2.10;;;21.10;99.90;;;;;;10478196;28;20214;-80
2023/05/06 10:46:25;;;;;;;2.57;2.37;;;20.90;99.90;;;;;;10463408;28;20256;-80
2023/05/06 10:51:28;;;;;;;2.50;2.40;;;20.70;99.30;;;;;;10457124;28;20300;-80
2023/05/06 10:56:32;;;;;;;2.50;2.30;;;20.50;98.50;;;;;;10445312;28;20201;-80
2023/05/06 11:01:36;;;;;;;4.30;3.90;;;20.30;99.90;;;;;;10455471;28;20236;-79
2023/05/06 11:06:41;;;;;;;3.10;2.90;;;20.20;99.90;;;;;;10461493;28;20700;-79
2023/05/06 11:11:50;;;;;;;3.40;3.10;;;20.20;99.90;;;;;;10468775;28;20229;-80
2023/05/06 11:16:56;;;;;;;2.40;2.30;;;20.10;99.90;;;;;;10473528;28;20510;-80
2023/05/06 11:21:59;;;;;;;2.90;2.70;;;20.10;97.80;;;;;;10457278;28;20218;-80
2023/05/06 11:27:01;;;;;;;2.70;2.50;;;20.00;99.30;;;;;;10455762;28;20661;-79
2023/05/06 11:32:17;;;;;;;2.90;2.70;;;19.90;99.40;;;;;;10457716;28;20220;-80
2023/05/06 11:37:25;;;;;;;2.33;2.23;;;19.90;97.50;;;;;;10452691;28;20228;-80
2023/05/06 11:42:29;;;;;;;2.43;2.30;;;19.80;97.40;;;;;;10455885;28;20233;-80
2023/05/06 11:47:32;;;;;;;2.50;2.40;;;19.70;98.60;;;;;;10439360;28;20588;-81
2023/05/06 11:52:35;;;;;;;2.10;1.90;;;19.70;99.00;;;;;;10437448;28;20220;-81
2023/05/06 11:57:43;;;;;;;2.43;2.23;;;19.70;98.20;;;;;;10454873;28;20192;-80
2023/05/06 12:02:46;;;;;;;2.40;2.20;;;19.70;96.90;;;;;;10455635;28;20850;-80
2023/05/06 12:07:49;;;;;;;4.30;2.73;;;19.70;97.90;;;;;;10454170;28;20763;-81
2023/05/06 12:12:51;;;;;;;2.70;2.50;;;19.70;97.40;;;;;;10456035;28;20222;-81
2023/05/06 12:17:55;;;;;;;4.27;2.33;;;19.80;97.70;;;;;;10439249;28;20248;-81
2023/05/06 12:23:07;;;;;;;2.50;2.40;;;20.00;96.30;;;;;;10457607;28;20226;-80
2023/05/06 12:28:15;;;;;;;2.53;2.33;;;20.10;97.10;;;;;;10456712;28;20210;-80
2023/05/06 12:33:19;;;;;;;2.40;2.23;;;20.20;97.10;;;;;;10440756;28;20719;-81
2023/05/06 12:38:21;;;;;;;2.63;2.53;;;20.30;98.10;;;;;;10438143;28;20250;-81
2023/05/06 12:43:30;;;;;;;2.30;2.20;;;20.40;97.00;;;;;;10455014;28;20275;-81
2023/05/06 12:48:33;;;;;;;4.27;2.53;;;20.50;97.60;;;;;;10449026;28;20788;-81
2023/05/06 12:53:35;;;;;;;3.00;2.60;;;20.60;98.60;;;;;;10433984;28;20214;-81
2023/05/06 12:58:40;;;;;;;2.60;2.50;;;20.70;97.90;;;;;;10454228;28;20604;-81
2023/05/06 13:03:44;;;;;;;2.40;2.30;;;20.80;98.20;;;;;;10454821;28;20213;-82
2023/05/06 13:08:46;;;;;;;3.20;2.87;;;20.90;96.90;;;;;;10448122;28;20277;-80
2023/05/06 13:13:48;;;;;;;2.33;2.20;;;21.00;96.80;;;;;;10450051;28;20232;-81
2023/05/06 13:18:52;;;;;;;2.13;2.03;;;21.00;97.80;;;;;;10450664;28;20212;-81
2023/05/06 13:23:54;;;;;;;2.93;2.73;;;21.10;99.10;;;;;;10432713;28;20688;-81
2023/05/06 13:28:56;;;;;;;2.43;2.33;;;21.20;95.60;;;;;;10466736;28;20198;-82
2023/05/06 13:33:59;;;;;;;3.80;2.07;;;21.10;96.20;;;;;;10474740;28;20748;-81
2023/05/06 13:39:03;;;;;;;2.40;2.13;;;21.10;95.10;;;;;;10456293;28;20277;-81
2023/05/06 13:44:05;;;;;;;3.10;1.63;;;20.90;96.00;;;;;;10457923;28;20595;-80
2023/05/06 13:49:08;;;;;;;2.50;2.27;;;20.90;95.20;;;;;;10454958;28;20189;-80
2023/05/06 13:54:10;;;;;;;2.80;2.20;;;20.70;96.30;;;;;;10457277;28;20273;-81
2023/05/06 13:59:13;;;;;;;2.70;2.50;;;20.60;95.70;;;;;;10455603;28;20201;-81
2023/05/06 14:04:16;;;;;;;2.60;2.40;;;20.50;96.70;;;;;;10455187;28;20209;-80
2023/05/06 14:09:18;;;;;;;2.10;2.00;;;20.30;97.10;;;;;;10456098;28;20292;-79
2023/05/06 14:14:20;;;;;;;2.00;1.90;;;20.30;95.50;;;;;;10455850;28;20217;-80
2023/05/06 14:19:24;;;;;;;2.60;2.40;;;20.30;95.40;;;;;;10458587;28;20206;-79
2023/05/06 14:24:26;;;;;;;2.57;2.20;;;20.20;96.30;;;;;;10458894;28;20317;-81
2023/05/06 14:29:28;;;;;;;5.90;2.30;;;20.20;96.50;;;;;;10455217;28;20214;-79
2023/05/06 14:34:34;;;;;;;13.63;6.77;;;20.20;95.70;;;;;;10463002;28;20190;-80
2023/05/06 14:39:36;;;;;;;2.60;2.40;;;20.10;96.80;;;;;;10462395;28;20308;-79
2023/05/06 14:44:38;;;;;;;2.20;2.10;;;20.10;95.70;;;;;;10459631;28;20242;-80
2023/05/06 14:49:42;;;;;;;1.97;1.83;;;20.20;94.30;;;;;;10440797;28;20217;-80
2023/05/06 14:54:44;;;;;;;3.47;2.23;;;20.10;95.70;;;;;;10458481;28;20202;-81
2023/05/06 14:59:46;;;;;;;2.10;2.00;;;20.20;94.30;;;;;;10460079;28;20740;-81
2023/05/06 15:04:50;;;;;;;1.90;1.80;;;20.20;96.00;;;;;;10460410;28;20206;-82
2023/05/06 15:09:52;;;;;;;2.50;1.93;;;20.20;93.80;;;;;;10460530;28;20217;-80
2023/05/06 15:14:54;;;;;;;1.77;1.67;;;20.20;94.40;;;;;;10458273;28;20328;-80
2023/05/06 15:19:57;;;;;;;2.33;2.13;;;20.50;95.70;;;;;;10458013;28;20217;-80
2023/05/06 15:25:00;;;;;;;2.27;2.17;;;20.60;96.60;;;;;;10458019;28;20222;-80
2023/05/06 15:30:03;;;;;;;1.97;1.57;;;20.50;94.80;;;;;;10473000;23;20230;-81
2023/05/06 15:35:07;;;;;;;1.80;1.70;;;20.40;97.30;;;;;;10405971;28;20286;-84
2023/05/06 15:40:13;;;;;;;2.20;2.00;;;20.30;97.00;;;;;;10432966;28;20289;-84
2023/05/06 15:45:16;;;;;;;2.00;1.90;;;20.20;96.30;;;;;;10481085;28;20217;-82
2023/05/06 15:50:20;;;;;;;2.00;1.90;;;20.10;94.80;;;;;;10450846;28;20218;-83
2023/05/06 15:55:22;;;;;;;2.10;2.00;;;20.10;92.90;;;;;;10453565;28;20255;-83
2023/05/06 16:00:24;;;;;;;1.80;1.70;;;20.20;94.50;;;;;;10453606;28;20678;-83
2023/05/06 16:05:28;;;;;;;1.80;1.70;;;20.10;94.60;;;;;;10446196;28;20209;-84
2023/05/06 16:10:30;;;;;;;2.00;1.90;;;20.10;93.90;;;;;;10451677;28;20222;-82
2023/05/06 16:15:32;;;;;;;2.07;1.87;;;20.00;96.50;;;;;;10411537;28;20269;-84
2023/05/06 16:20:35;;;;;;;1.80;1.70;;;19.90;94.90;;;;;;10437531;28;20217;-82
2023/05/06 16:25:37;;;;;;;1.70;1.60;;;20.00;93.10;;;;;;10457044;28;20240;-83
2023/05/06 16:30:43;;;;;;;1.93;1.83;;;20.00;94.80;;;;;;10451555;28;20636;-81
2023/05/06 16:35:47;;;;;;;2.10;1.90;;;20.00;95.50;;;;;;10438375;28;20197;-83
2023/05/06 16:40:50;;;;;;;1.90;1.80;;;20.00;93.90;;;;;;10456897;28;20224;-82
2023/05/06 16:45:52;;;;;;;3.17;2.33;;;20.10;91.80;;;;;;10457612;28;20202;-83
2023/05/06 16:50:55;;;;;;;2.20;2.10;;;20.20;93.50;;;;;;10457567;28;20213;-82
2023/05/06 16:55:57;;;;;;;2.10;2.00;;;20.20;95.30;;;;;;10461133;28;20562;-82
2023/05/06 17:00:59;;;;;;;2.00;1.90;;;20.10;95.90;;;;;;10459094;28;20336;-81
2023/05/06 17:06:04;;;;;;;2.27;2.17;;;20.10;94.00;;;;;;10457574;28;20256;-81
2023/05/06 17:11:06;;;;;;;1.90;1.80;;;20.10;95.10;;;;;;10460059;28;20229;-84
2023/05/06 17:16:08;;;;;;;2.60;2.23;;;20.00;95.70;;;;;;10462286;28;20192;-83
2023/05/06 17:21:12;;;;;;;2.17;2.07;;;19.90;97.40;;;;;;10441075;28;20230;-82
2023/05/06 17:26:16;;;;;;;2.40;1.83;;;19.70;93.20;;;;;;10459182;28;20274;-82
2023/05/06 17:31:18;;;;;;;2.40;2.20;;;19.70;93.80;;;;;;10459192;28;20225;-82
2023/05/06 17:36:22;;;;;;;2.50;2.40;;;19.70;93.60;;;;;;10452938;28;20198;-82
2023/05/06 17:41:24;;;;;;;2.80;2.60;;;19.60;96.00;;;;;;10456888;28;20221;-83
2023/05/06 17:46:27;;;;;;;4.30;2.17;;;19.50;96.40;;;;;;10457280;28;20249;-83
2023/05/06 17:51:30;;;;;;;2.77;2.57;;;19.50;96.00;;;;;;10457629;28;20214;-83
2023/05/06 17:56:32;;;;;;;2.20;2.10;;;19.40;97.00;;;;;;10458426;28;20276;-83
2023/05/06 18:01:34;;;;;;;2.83;2.37;;;19.40;96.80;;;;;;10460215;28;20217;-83
2023/05/06 18:06:38;;;;;;;2.50;2.40;;;19.30;95.70;;;;;;10457177;28;20221;-84
2023/05/06 18:11:41;;;;;;;2.17;2.03;;;19.30;97.90;;;;;;10458090;28;20218;-83
2023/05/06 18:16:43;;;;;;;2.13;2.00;;;19.20;95.80;;;;;;10464413;28;20201;-84
2023/05/06 18:21:46;;;;;;;4.30;2.83;;;19.30;94.90;;;;;;10450748;28;20763;-84
2023/05/06 18:26:48;;;;;;;3.20;3.00;;;19.20;95.20;;;;;;10468982;28;20245;-85
2023/05/06 18:31:50;;;;;;;2.73;2.53;;;19.20;96.20;;;;;;10469325;28;20279;-82
2023/05/06 18:36:54;;;;;;;2.20;2.10;;;19.10;95.70;;;;;;10451581;28;20236;-82
2023/05/06 18:41:56;;;;;;;3.27;2.97;;;19.10;95.80;;;;;;10477344;28;20731;-84
2023/05/06 18:46:58;;;;;;;4.33;3.40;;;19.00;96.10;;;;;;10465784;28;20698;-84
2023/05/06 18:52:02;;;;;;;4.20;2.50;;;18.80;96.60;;;;;;10447909;28;20277;-84
2023/05/06 18:57:04;;;;;;;3.70;2.60;;;18.70;96.70;;;;;;10465630;28;20197;-84
2023/05/06 19:02:07;;;;;;;2.50;2.30;;;18.60;97.10;;;;;;10463875;28;20210;-84
2023/05/06 19:07:11;;;;;;;3.30;3.00;;;18.50;97.30;;;;;;10465312;28;20221;-83
2023/05/06 19:12:13;;;;;;;2.40;2.20;;;18.40;96.90;;;;;;10448911;28;20241;-84
2023/05/06 19:17:16;;;;;;;2.57;2.47;;;18.40;97.20;;;;;;10463929;28;20264;-84
2023/05/06 19:22:19;;;;;;;2.30;1.97;;;18.30;97.10;;;;;;10462374;28;20276;-84
2023/05/06 19:27:22;;;;;;;4.30;2.40;;;18.20;97.40;;;;;;10445511;28;20259;-84
2023/05/06 19:32:24;;;;;;;2.57;2.47;;;18.10;97.90;;;;;;10464914;28;20750;-83
2023/05/06 19:37:29;;;;;;;4.13;2.50;;;18.10;98.40;;;;;;10464956;28;20229;-83
2023/05/06 19:42:31;;;;;;;2.47;2.27;;;18.00;98.90;;;;;;10447937;28;20290;-83
2023/05/06 19:47:33;;;;;;;3.33;2.87;;;17.90;98.30;;;;;;10446087;28;20213;-84
2023/05/06 19:52:36;;;;;;;3.00;2.90;;;17.90;98.80;;;;;;10445645;28;20221;-84
2023/05/06 19:57:39;;;;;;;2.93;2.50;;;17.90;98.70;;;;;;10446675;28;20204;-82
2023/05/06 20:02:41;;;;;;;2.93;2.73;;;17.90;98.90;;;;;;10465301;28;20271;-83
2023/05/06 20:07:44;;;;;;;2.80;2.30;;;17.80;98.80;;;;;;10464678;28;20214;-82
2023/05/06 20:12:46;;;;;;;3.00;2.80;;;17.80;99.00;;;;;;10466949;28;20248;-84
2023/05/06 20:17:49;;;;;;;3.20;3.00;;;17.70;99.50;;;;;;10463437;28;20348;-83
2023/05/06 20:22:52;;;;;;;3.53;3.23;;;17.70;99.50;;;;;;10461760;28;20225;-83
2023/05/06 20:27:54;;;;;;;3.43;3.13;;;17.60;99.90;;;;;;10462213;28;20300;-83
2023/05/06 20:32:56;;;;;;;3.23;3.03;;;17.60;99.30;;;;;;10465242;28;20252;-82
2023/05/06 20:38:00;;;;;;;3.23;2.93;;;17.50;99.70;;;;;;10461941;28;20186;-81
2023/05/06 20:43:03;;;;;;;2.87;2.77;;;17.50;99.60;;;;;;10464034;28;20214;-83
2023/05/06 20:48:07;;;;;;;5.07;4.30;;;17.40;99.40;;;;;;10459639;28;20218;-83
2023/05/06 20:53:11;;;;;;;3.57;3.27;;;17.40;99.70;;;;;;10460564;28;20592;-83
2023/05/06 20:58:13;;;;;;;3.30;3.03;;;17.30;99.80;;;;;;10461002;28;20194;-83
2023/05/06 21:03:15;;;;;;;4.90;3.10;;;17.20;99.70;;;;;;10459622;28;20625;-83
2023/05/06 21:08:18;;;;;;;5.60;2.80;;;17.20;99.80;;;;;;10459153;28;20275;-83
2023/05/06 21:13:20;;;;;;;2.90;2.70;;;17.10;99.90;;;;;;10461503;28;20225;-83
2023/05/06 21:18:22;;;;;;;2.50;2.40;;;17.10;99.90;;;;;;10460144;28;20216;-83
2023/05/06 21:23:26;;;;;;;4.37;2.90;;;17.00;99.90;;;;;;10444048;28;20217;-83
2023/05/06 21:28:28;;;;;;;2.83;2.70;;;16.90;99.90;;;;;;10461218;28;20213;-83
2023/05/06 21:33:30;;;;;;;2.53;2.43;;;16.80;99.90;;;;;;10469807;23;20296;-79
2023/05/06 21:38:34;;;;;;;2.70;2.60;;;16.80;99.90;;;;;;10422480;28;20278;-79
2023/05/06 21:43:36;;;;;;;2.80;2.70;;;16.80;99.90;;;;;;10402565;28;20272;-79
2023/05/06 21:48:38;;;;;;;2.90;2.80;;;16.70;99.90;;;;;;10436028;28;20214;-79
2023/05/06 21:53:41;;;;;;;3.47;3.23;;;16.70;99.90;;;;;;10462364;28;20677;-79
2023/05/06 21:58:43;;;;;;;2.97;2.70;;;16.70;99.90;;;;;;10417327;28;20202;-79
2023/05/06 22:03:45;;;;;;;5.17;3.20;;;16.70;99.90;;;;;;10419023;28;20239;-79
2023/05/06 22:08:49;;;;;;;3.03;2.67;;;16.70;99.90;;;;;;10420015;28;20214;-79
2023/05/06 22:13:51;;;;;;;5.70;3.20;;;16.70;99.90;;;;;;10415735;28;20283;-81
2023/05/06 22:18:54;;;;;;;4.03;3.43;;;16.70;99.90;;;;;;10442385;28;20199;-79
2023/05/06 22:23:57;;;;;;;4.60;3.13;;;16.70;99.90;;;;;;10421861;28;20217;-80
2023/05/06 22:28:59;;;;;;;3.93;3.63;;;16.60;99.90;;;;;;10424191;28;20272;-80
2023/05/06 22:34:03;;;;;;;3.33;3.13;;;16.60;99.90;;;;;;10399936;28;20242;-80
2023/05/06 22:39:06;;;;;;;2.90;2.80;;;16.60;99.90;;;;;;10420256;28;20276;-80
2023/05/06 22:44:09;;;;;;;3.60;3.20;;;16.60;99.90;;;;;;10424191;28;20793;-80
2023/05/06 22:49:11;;;;;;;3.43;3.13;;;16.60;99.90;;;;;;10419737;28;20247;-79
2023/05/06 22:54:14;;;;;;;3.50;3.30;;;16.50;99.90;;;;;;10428526;28;20246;-80
2023/05/06 22:59:16;;;;;;;7.90;3.73;;;16.40;99.90;;;;;;10418940;28;20662;-81
2023/05/06 23:04:18;;;;;;;4.40;3.00;;;16.30;99.90;;;;;;10442488;28;20253;-79
2023/05/06 23:09:22;;;;;;;3.70;3.40;;;16.20;99.90;;;;;;10415667;28;20634;-79
2023/05/06 23:14:24;;;;;;;3.67;3.37;;;16.10;99.90;;;;;;10426546;28;20322;-79
2023/05/06 23:19:26;;;;;;;3.93;3.30;;;16.00;99.90;;;;;;10443925;28;20222;-80
2023/05/06 23:24:29;;;;;;;4.53;3.90;;;16.00;99.90;;;;;;10416659;28;20596;-79
2023/05/06 23:29:31;;;;;;;3.70;3.37;;;16.00;99.90;;;;;;10444556;28;20215;-80
2023/05/06 23:34:33;;;;;;;3.57;3.27;;;16.10;99.90;;;;;;10432437;28;20308;-80
2023/05/06 23:39:37;;;;;;;4.00;3.60;;;16.10;99.90;;;;;;10427229;28;20627;-79
2023/05/06 23:44:39;;;;;;;3.13;2.93;;;16.10;99.90;;;;;;10411038;28;20218;-80
2023/05/06 23:49:41;;;;;;;3.27;3.07;;;16.00;99.90;;;;;;10413723;28;20292;-80
2023/05/06 23:54:44;;;;;;;4.27;4.07;;;16.00;99.90;;;;;;10422638;28;20222;-80
2023/05/06 23:59:46;;;;;;;4.23;3.93;;;16.00;99.90;;;;;;10429107;28;20280;-78
